Lockport, NY (14094)

8:15 AM EDT on July 24, 2016 (GMT -0400)
KNYLOCKP3 | | Change Station

Elev 614 ft 43.17 °N, 78.68 °W | Updated 1 minute ago

Mostly Cloudy
Mostly Cloudy
73.0 °F
Feels Like 73 °F
N
3.0
Wind Variable Wind from ESE
Gusts 6.0 mph

Today
High -- | Low -- °F
--% Chance of Precip.
Yesterday
High -- | Low -- °F
Precip. -- in
Pressure 29.99 in
Visibility 10.0 miles
Clouds Scattered Clouds 18000 ft
Mostly Cloudy 25000 ft
Heat Index 73 °F
Dew Point 67 °F
Humidity 82%
Rainfall 0.00 in
Snow Depth Not available.
5:57 AM 8:44 PM
Waning Gibbous, 77% visible
METAR KIAG 241153Z 10006KT 10SM SCT180 BKN250 22/16 A3001 RMK AO2 SLP155 T02220156 10228 20194 50006
Pressure 29.99 in
Visibility 10.0 miles
Clouds Scattered Clouds 18000 ft
Mostly Cloudy 25000 ft
Heat Index 73 °F
Dew Point 67 °F
Humidity 82%
Rainfall 0.00 in
Snow Depth Not available.
5:57 AM 8:44 PM
Waning Gibbous, 77% visible
METAR KIAG 241153Z 10006KT 10SM SCT180 BKN250 22/16 A3001 RMK AO2 SLP155 T02220156 10228 20194 50006

10-Day Weather Forecast

Almanac

Astronomy

Jul. 24, 2016 Rise Set
Actual Time
Civil Twilight
Nautical Twilight
Astronomical Twilight
Moon
Length of Visible Light
Length of Day
Tomorrow will be .
, % of the Moon is Illuminated

Today's Extremes

State Highs State Lows

Community

WunderPhotos

Upload Photos

1,927,053 photos uploaded!

WunderBlog® & News

Nearby

Air Quality

  Air Quality AQ Index Pollutant
Not available.

Snow Depth

Station Depth Elevation

Earthquake Activity

City Distance Mag. Time & Date
Minimum magnitude displayed is 2.5.

Coastal Water Temperatures

Place Temperature

Stations

Nearby Weather Stations

Station Location Temp. Windchill Dew Point Humidity Wind Precip. Elev Updated Type
                   

Watches & Warnings

There are currently no watches in effect.